sensor_id;sensor_type;location;lat;lon;timestamp;P1;durP1;ratioP1;P2;durP2;ratioP2
23206;SDS011;11773;52.570;13.052;2024-01-10T00:00:10;4.33;;;2.97;;
23206;SDS011;11773;52.570;13.052;2024-01-10T00:02:40;5.07;;;3.10;;
23206;SDS011;11773;52.570;13.052;2024-01-10T00:05:10;3.77;;;2.83;;
23206;SDS011;11773;52.570;13.052;2024-01-10T00:07:40;5.20;;;3.50;;
23206;SDS011;11773;52.570;13.052;2024-01-10T00:10:09;4.13;;;3.07;;
23206;SDS011;11773;52.570;13.052;2024-01-10T00:12:39;4.57;;;3.23;;
23206;SDS011;11773;52.570;13.052;2024-01-10T00:15:10;3.40;;;2.70;;
23206;SDS011;11773;52.570;13.052;2024-01-10T00:17:40;4.90;;;3.57;;
23206;SDS011;11773;52.570;13.052;2024-01-10T00:20:10;3.80;;;2.90;;
23206;SDS011;11773;52.570;13.052;2024-01-10T00:22:39;3.10;;;2.10;;
23206;SDS011;11773;52.570;13.052;2024-01-10T00:25:09;3.67;;;2.50;;
23206;SDS011;11773;52.570;13.052;2024-01-10T00:27:39;3.63;;;2.70;;
23206;SDS011;11773;52.570;13.052;2024-01-10T00:30:09;4.50;;;3.00;;
23206;SDS011;11773;52.570;13.052;2024-01-10T00:32:39;3.93;;;2.77;;
23206;SDS011;11773;52.570;13.052;2024-01-10T00:35:08;4.63;;;3.20;;
23206;SDS011;11773;52.570;13.052;2024-01-10T00:37:38;4.77;;;2.90;;
23206;SDS011;11773;52.570;13.052;2024-01-10T00:40:08;4.20;;;2.93;;
23206;SDS011;11773;52.570;13.052;2024-01-10T00:42:38;3.73;;;3.00;;
23206;SDS011;11773;52.570;13.052;2024-01-10T00:45:08;3.17;;;2.30;;
23206;SDS011;11773;52.570;13.052;2024-01-10T00:47:38;4.97;;;2.97;;
23206;SDS011;11773;52.570;13.052;2024-01-10T00:50:08;4.37;;;2.90;;
23206;SDS011;11773;52.570;13.052;2024-01-10T00:52:38;3.83;;;2.60;;
23206;SDS011;11773;52.570;13.052;2024-01-10T00:55:07;3.43;;;2.43;;
23206;SDS011;11773;52.570;13.052;2024-01-10T00:57:37;4.03;;;2.70;;
23206;SDS011;11773;52.570;13.052;2024-01-10T01:00:08;4.43;;;2.63;;
23206;SDS011;11773;52.570;13.052;2024-01-10T01:02:38;4.13;;;3.00;;
23206;SDS011;11773;52.570;13.052;2024-01-10T01:05:08;3.70;;;3.00;;
23206;SDS011;11773;52.570;13.052;2024-01-10T01:07:37;3.73;;;2.77;;
23206;SDS011;11773;52.570;13.052;2024-01-10T01:10:07;5.00;;;3.10;;
23206;SDS011;11773;52.570;13.052;2024-01-10T01:12:37;3.77;;;3.00;;
23206;SDS011;11773;52.570;13.052;2024-01-10T01:15:06;2.97;;;2.60;;
23206;SDS011;11773;52.570;13.052;2024-01-10T01:17:36;3.87;;;2.70;;
23206;SDS011;11773;52.570;13.052;2024-01-10T01:20:06;3.57;;;2.50;;
23206;SDS011;11773;52.570;13.052;2024-01-10T01:22:37;3.83;;;2.73;;
23206;SDS011;11773;52.570;13.052;2024-01-10T01:25:06;4.13;;;2.97;;
23206;SDS011;11773;52.570;13.052;2024-01-10T01:27:36;3.63;;;2.93;;
23206;SDS011;11773;52.570;13.052;2024-01-10T01:30:06;3.97;;;2.77;;
23206;SDS011;11773;52.570;13.052;2024-01-10T01:32:38;5.10;;;3.30;;
23206;SDS011;11773;52.570;13.052;2024-01-10T01:35:08;5.23;;;3.10;;
23206;SDS011;11773;52.570;13.052;2024-01-10T01:37:38;3.73;;;2.83;;
23206;SDS011;11773;52.570;13.052;2024-01-10T01:40:08;2.80;;;2.30;;
23206;SDS011;11773;52.570;13.052;2024-01-10T01:42:38;3.97;;;2.80;;
23206;SDS011;11773;52.570;13.052;2024-01-10T01:45:07;5.47;;;3.30;;
23206;SDS011;11773;52.570;13.052;2024-01-10T01:47:38;3.93;;;2.87;;
23206;SDS011;11773;52.570;13.052;2024-01-10T01:50:10;4.37;;;2.80;;
23206;SDS011;11773;52.570;13.052;2024-01-10T01:52:39;3.60;;;2.80;;
23206;SDS011;11773;52.570;13.052;2024-01-10T01:55:09;4.00;;;3.17;;
23206;SDS011;11773;52.570;13.052;2024-01-10T01:57:39;4.20;;;3.07;;
23206;SDS011;11773;52.570;13.052;2024-01-10T02:00:09;4.97;;;3.13;;
23206;SDS011;11773;52.570;13.052;2024-01-10T02:02:39;4.47;;;2.90;;
23206;SDS011;11773;52.570;13.052;2024-01-10T02:05:11;4.47;;;2.70;;
23206;SDS011;11773;52.570;13.052;2024-01-10T02:07:42;3.23;;;2.77;;
23206;SDS011;11773;52.570;13.052;2024-01-10T02:10:12;3.40;;;2.80;;
23206;SDS011;11773;52.570;13.052;2024-01-10T02:12:42;4.27;;;2.93;;
23206;SDS011;11773;52.570;13.052;2024-01-10T02:15:12;5.50;;;3.37;;
23206;SDS011;11773;52.570;13.052;2024-01-10T02:17:43;4.90;;;3.80;;
23206;SDS011;11773;52.570;13.052;2024-01-10T02:20:13;4.70;;;3.23;;
23206;SDS011;11773;52.570;13.052;2024-01-10T02:22:44;4.37;;;2.97;;
23206;SDS011;11773;52.570;13.052;2024-01-10T02:25:14;4.93;;;2.70;;
23206;SDS011;11773;52.570;13.052;2024-01-10T02:27:44;4.65;;;2.90;;
23206;SDS011;11773;52.570;13.052;2024-01-10T02:30:14;5.67;;;3.27;;
23206;SDS011;11773;52.570;13.052;2024-01-10T02:32:43;4.50;;;2.73;;
23206;SDS011;11773;52.570;13.052;2024-01-10T02:35:13;5.70;;;3.57;;
23206;SDS011;11773;52.570;13.052;2024-01-10T02:37:42;6.05;;;4.10;;
23206;SDS011;11773;52.570;13.052;2024-01-10T02:40:12;7.00;;;4.07;;
23206;SDS011;11773;52.570;13.052;2024-01-10T02:42:42;6.03;;;4.03;;
23206;SDS011;11773;52.570;13.052;2024-01-10T02:45:11;5.83;;;3.80;;
23206;SDS011;11773;52.570;13.052;2024-01-10T02:47:41;5.37;;;3.10;;
23206;SDS011;11773;52.570;13.052;2024-01-10T02:50:11;4.10;;;3.07;;
23206;SDS011;11773;52.570;13.052;2024-01-10T02:52:41;6.90;;;4.17;;
23206;SDS011;11773;52.570;13.052;2024-01-10T02:55:11;5.00;;;3.50;;
23206;SDS011;11773;52.570;13.052;2024-01-10T02:57:40;4.43;;;3.07;;
23206;SDS011;11773;52.570;13.052;2024-01-10T03:00:10;4.80;;;3.23;;
23206;SDS011;11773;52.570;13.052;2024-01-10T03:02:41;5.67;;;3.37;;
23206;SDS011;11773;52.570;13.052;2024-01-10T03:05:10;5.53;;;3.27;;
23206;SDS011;11773;52.570;13.052;2024-01-10T03:07:40;5.60;;;3.30;;
23206;SDS011;11773;52.570;13.052;2024-01-10T03:10:09;6.70;;;3.93;;
23206;SDS011;11773;52.570;13.052;2024-01-10T03:12:39;6.13;;;4.00;;
23206;SDS011;11773;52.570;13.052;2024-01-10T03:15:09;4.83;;;3.70;;
23206;SDS011;11773;52.570;13.052;2024-01-10T03:17:38;5.80;;;3.30;;
23206;SDS011;11773;52.570;13.052;2024-01-10T03:20:10;5.83;;;3.33;;
23206;SDS011;11773;52.570;13.052;2024-01-10T03:22:39;3.47;;;3.00;;
23206;SDS011;11773;52.570;13.052;2024-01-10T03:25:09;3.83;;;2.80;;
23206;SDS011;11773;52.570;13.052;2024-01-10T03:27:38;3.27;;;2.40;;
23206;SDS011;11773;52.570;13.052;2024-01-10T03:30:10;3.17;;;2.47;;
23206;SDS011;11773;52.570;13.052;2024-01-10T03:32:40;3.07;;;2.53;;
23206;SDS011;11773;52.570;13.052;2024-01-10T03:35:09;3.30;;;2.50;;
23206;SDS011;11773;52.570;13.052;2024-01-10T03:37:39;3.83;;;2.70;;
23206;SDS011;11773;52.570;13.052;2024-01-10T03:40:09;2.95;;;2.12;;
23206;SDS011;11773;52.570;13.052;2024-01-10T03:42:39;4.83;;;2.70;;
23206;SDS011;11773;52.570;13.052;2024-01-10T03:45:08;5.87;;;3.80;;
23206;SDS011;11773;52.570;13.052;2024-01-10T03:47:38;3.97;;;2.83;;
23206;SDS011;11773;52.570;13.052;2024-01-10T03:50:07;4.30;;;2.93;;
23206;SDS011;11773;52.570;13.052;2024-01-10T03:52:37;3.70;;;2.97;;
23206;SDS011;11773;52.570;13.052;2024-01-10T03:55:06;3.93;;;3.03;;
23206;SDS011;11773;52.570;13.052;2024-01-10T03:57:37;6.53;;;4.27;;
23206;SDS011;11773;52.570;13.052;2024-01-10T04:00:07;5.17;;;3.65;;
23206;SDS011;11773;52.570;13.052;2024-01-10T04:02:37;5.93;;;3.37;;
23206;SDS011;11773;52.570;13.052;2024-01-10T04:05:07;5.77;;;3.83;;
23206;SDS011;11773;52.570;13.052;2024-01-10T04:07:40;6.27;;;3.83;;
23206;SDS011;11773;52.570;13.052;2024-01-10T04:10:11;5.33;;;3.73;;
23206;SDS011;11773;52.570;13.052;2024-01-10T04:12:45;5.10;;;3.40;;
23206;SDS011;11773;52.570;13.052;2024-01-10T04:15:14;6.63;;;3.97;;
23206;SDS011;11773;52.570;13.052;2024-01-10T04:17:47;10.07;;;5.07;;
23206;SDS011;11773;52.570;13.052;2024-01-10T04:20:18;11.50;;;6.23;;
23206;SDS011;11773;52.570;13.052;2024-01-10T04:22:47;9.67;;;5.00;;
23206;SDS011;11773;52.570;13.052;2024-01-10T04:25:17;8.67;;;4.47;;
23206;SDS011;11773;52.570;13.052;2024-01-10T04:27:47;7.83;;;4.53;;
23206;SDS011;11773;52.570;13.052;2024-01-10T04:30:20;5.47;;;3.67;;
23206;SDS011;11773;52.570;13.052;2024-01-10T04:32:50;5.53;;;3.57;;
23206;SDS011;11773;52.570;13.052;2024-01-10T04:35:19;6.67;;;3.87;;
23206;SDS011;11773;52.570;13.052;2024-01-10T04:37:49;5.23;;;3.20;;
23206;SDS011;11773;52.570;13.052;2024-01-10T04:40:19;4.70;;;2.80;;
23206;SDS011;11773;52.570;13.052;2024-01-10T04:42:48;5.23;;;3.07;;
23206;SDS011;11773;52.570;13.052;2024-01-10T04:45:18;4.90;;;3.03;;
23206;SDS011;11773;52.570;13.052;2024-01-10T04:47:47;5.63;;;3.63;;
23206;SDS011;11773;52.570;13.052;2024-01-10T04:50:17;6.03;;;3.63;;
23206;SDS011;11773;52.570;13.052;2024-01-10T04:52:47;5.23;;;3.53;;
23206;SDS011;11773;52.570;13.052;2024-01-10T04:55:17;4.80;;;3.60;;
23206;SDS011;11773;52.570;13.052;2024-01-10T04:57:46;7.03;;;4.50;;
23206;SDS011;11773;52.570;13.052;2024-01-10T05:00:16;7.20;;;3.93;;
23206;SDS011;11773;52.570;13.052;2024-01-10T05:02:46;5.80;;;3.80;;
23206;SDS011;11773;52.570;13.052;2024-01-10T05:05:17;5.40;;;3.67;;
23206;SDS011;11773;52.570;13.052;2024-01-10T05:07:48;7.67;;;4.83;;
23206;SDS011;11773;52.570;13.052;2024-01-10T05:10:19;7.33;;;4.47;;
23206;SDS011;11773;52.570;13.052;2024-01-10T05:12:48;7.67;;;4.83;;
23206;SDS011;11773;52.570;13.052;2024-01-10T05:15:18;6.07;;;3.87;;
23206;SDS011;11773;52.570;13.052;2024-01-10T05:17:47;5.67;;;3.70;;
23206;SDS011;11773;52.570;13.052;2024-01-10T05:20:17;4.53;;;3.30;;
23206;SDS011;11773;52.570;13.052;2024-01-10T05:22:47;4.55;;;2.85;;
23206;SDS011;11773;52.570;13.052;2024-01-10T05:25:17;5.40;;;3.60;;
23206;SDS011;11773;52.570;13.052;2024-01-10T05:27:47;5.20;;;3.63;;
23206;SDS011;11773;52.570;13.052;2024-01-10T05:30:16;5.20;;;3.23;;
23206;SDS011;11773;52.570;13.052;2024-01-10T05:32:46;5.30;;;3.37;;
23206;SDS011;11773;52.570;13.052;2024-01-10T05:35:15;5.57;;;3.53;;
23206;SDS011;11773;52.570;13.052;2024-01-10T05:37:45;5.53;;;3.50;;
23206;SDS011;11773;52.570;13.052;2024-01-10T05:40:15;5.23;;;3.50;;
23206;SDS011;11773;52.570;13.052;2024-01-10T05:42:45;6.73;;;3.80;;
23206;SDS011;11773;52.570;13.052;2024-01-10T05:45:16;5.43;;;3.47;;
23206;SDS011;11773;52.570;13.052;2024-01-10T05:47:45;10.17;;;5.90;;
23206;SDS011;11773;52.570;13.052;2024-01-10T05:50:15;7.33;;;5.03;;
23206;SDS011;11773;52.570;13.052;2024-01-10T05:52:45;7.60;;;4.13;;
23206;SDS011;11773;52.570;13.052;2024-01-10T05:55:16;6.33;;;3.60;;
23206;SDS011;11773;52.570;13.052;2024-01-10T05:57:46;4.80;;;3.13;;
23206;SDS011;11773;52.570;13.052;2024-01-10T06:00:15;5.50;;;3.40;;
23206;SDS011;11773;52.570;13.052;2024-01-10T06:02:47;5.12;;;3.00;;
23206;SDS011;11773;52.570;13.052;2024-01-10T06:05:16;4.60;;;2.90;;
23206;SDS011;11773;52.570;13.052;2024-01-10T06:07:46;3.77;;;2.77;;
23206;SDS011;11773;52.570;13.052;2024-01-10T06:10:16;5.17;;;3.53;;
23206;SDS011;11773;52.570;13.052;2024-01-10T06:12:45;5.47;;;3.23;;
23206;SDS011;11773;52.570;13.052;2024-01-10T06:15:15;4.93;;;3.30;;
23206;SDS011;11773;52.570;13.052;2024-01-10T06:17:45;3.57;;;2.90;;
23206;SDS011;11773;52.570;13.052;2024-01-10T06:20:15;5.60;;;3.03;;
23206;SDS011;11773;52.570;13.052;2024-01-10T06:22:46;4.83;;;3.33;;
23206;SDS011;11773;52.570;13.052;2024-01-10T06:25:15;6.17;;;3.40;;
23206;SDS011;11773;52.570;13.052;2024-01-10T06:27:45;4.93;;;3.23;;
23206;SDS011;11773;52.570;13.052;2024-01-10T06:30:14;5.40;;;3.60;;
23206;SDS011;11773;52.570;13.052;2024-01-10T06:32:44;7.37;;;4.30;;
23206;SDS011;11773;52.570;13.052;2024-01-10T06:35:14;6.17;;;4.20;;
23206;SDS011;11773;52.570;13.052;2024-01-10T06:37:43;5.60;;;3.40;;
23206;SDS011;11773;52.570;13.052;2024-01-10T06:40:13;6.58;;;3.83;;
23206;SDS011;11773;52.570;13.052;2024-01-10T06:42:43;5.53;;;3.20;;
23206;SDS011;11773;52.570;13.052;2024-01-10T06:45:14;5.30;;;3.50;;
23206;SDS011;11773;52.570;13.052;2024-01-10T06:47:44;9.10;;;5.50;;
23206;SDS011;11773;52.570;13.052;2024-01-10T06:50:13;7.03;;;4.50;;
23206;SDS011;11773;52.570;13.052;2024-01-10T06:52:43;5.00;;;3.70;;
23206;SDS011;11773;52.570;13.052;2024-01-10T06:55:13;5.87;;;3.73;;
23206;SDS011;11773;52.570;13.052;2024-01-10T06:57:43;6.07;;;4.17;;
23206;SDS011;11773;52.570;13.052;2024-01-10T07:00:13;6.57;;;4.40;;
23206;SDS011;11773;52.570;13.052;2024-01-10T07:02:45;6.87;;;4.90;;
23206;SDS011;11773;52.570;13.052;2024-01-10T07:05:16;7.47;;;4.60;;
23206;SDS011;11773;52.570;13.052;2024-01-10T07:07:47;8.33;;;4.73;;
23206;SDS011;11773;52.570;13.052;2024-01-10T07:10:17;6.83;;;4.63;;
23206;SDS011;11773;52.570;13.052;2024-01-10T07:12:46;7.50;;;4.80;;
23206;SDS011;11773;52.570;13.052;2024-01-10T07:15:16;6.50;;;4.33;;
23206;SDS011;11773;52.570;13.052;2024-01-10T07:17:45;7.33;;;4.63;;
23206;SDS011;11773;52.570;13.052;2024-01-10T07:20:16;7.07;;;3.97;;
23206;SDS011;11773;52.570;13.052;2024-01-10T07:22:45;6.47;;;3.93;;
23206;SDS011;11773;52.570;13.052;2024-01-10T07:25:16;6.43;;;4.10;;
23206;SDS011;11773;52.570;13.052;2024-01-10T07:27:46;8.17;;;4.63;;
23206;SDS011;11773;52.570;13.052;2024-01-10T07:30:15;7.77;;;4.40;;
23206;SDS011;11773;52.570;13.052;2024-01-10T07:32:45;10.07;;;6.40;;
23206;SDS011;11773;52.570;13.052;2024-01-10T07:35:15;8.83;;;5.50;;
23206;SDS011;11773;52.570;13.052;2024-01-10T07:37:45;7.73;;;4.93;;
23206;SDS011;11773;52.570;13.052;2024-01-10T07:40:15;7.50;;;4.50;;
23206;SDS011;11773;52.570;13.052;2024-01-10T07:42:45;7.07;;;4.13;;
23206;SDS011;11773;52.570;13.052;2024-01-10T07:45:15;5.90;;;3.77;;
23206;SDS011;11773;52.570;13.052;2024-01-10T07:47:44;4.80;;;3.00;;
23206;SDS011;11773;52.570;13.052;2024-01-10T07:50:14;4.70;;;3.13;;
23206;SDS011;11773;52.570;13.052;2024-01-10T07:52:44;5.03;;;3.30;;
23206;SDS011;11773;52.570;13.052;2024-01-10T07:55:14;7.00;;;4.70;;
23206;SDS011;11773;52.570;13.052;2024-01-10T07:57:44;6.50;;;3.97;;
23206;SDS011;11773;52.570;13.052;2024-01-10T08:00:14;6.73;;;4.17;;
23206;SDS011;11773;52.570;13.052;2024-01-10T08:02:45;6.43;;;4.30;;
23206;SDS011;11773;52.570;13.052;2024-01-10T08:05:17;5.20;;;3.90;;
23206;SDS011;11773;52.570;13.052;2024-01-10T08:07:48;6.80;;;4.20;;
23206;SDS011;11773;52.570;13.052;2024-01-10T08:10:18;6.80;;;4.60;;
23206;SDS011;11773;52.570;13.052;2024-01-10T08:12:47;9.33;;;5.70;;
23206;SDS011;11773;52.570;13.052;2024-01-10T08:15:18;6.87;;;4.37;;
23206;SDS011;11773;52.570;13.052;2024-01-10T08:17:48;6.03;;;4.17;;
23206;SDS011;11773;52.570;13.052;2024-01-10T08:20:18;8.30;;;4.93;;
23206;SDS011;11773;52.570;13.052;2024-01-10T08:22:48;7.00;;;4.00;;
23206;SDS011;11773;52.570;13.052;2024-01-10T08:25:18;8.33;;;4.53;;
23206;SDS011;11773;52.570;13.052;2024-01-10T08:27:48;7.23;;;4.60;;
23206;SDS011;11773;52.570;13.052;2024-01-10T08:30:20;7.27;;;4.43;;
23206;SDS011;11773;52.570;13.052;2024-01-10T08:32:50;9.93;;;5.80;;
23206;SDS011;11773;52.570;13.052;2024-01-10T08:35:21;7.10;;;4.67;;
23206;SDS011;11773;52.570;13.052;2024-01-10T08:37:52;7.53;;;4.70;;
23206;SDS011;11773;52.570;13.052;2024-01-10T08:40:22;6.23;;;4.40;;
23206;SDS011;11773;52.570;13.052;2024-01-10T08:42:53;6.37;;;4.27;;
23206;SDS011;11773;52.570;13.052;2024-01-10T08:45:22;7.13;;;4.47;;
23206;SDS011;11773;52.570;13.052;2024-01-10T08:47:52;8.90;;;5.10;;
23206;SDS011;11773;52.570;13.052;2024-01-10T08:50:22;7.30;;;4.60;;
23206;SDS011;11773;52.570;13.052;2024-01-10T08:52:52;7.23;;;4.43;;
23206;SDS011;11773;52.570;13.052;2024-01-10T08:55:22;8.67;;;5.10;;
23206;SDS011;11773;52.570;13.052;2024-01-10T08:57:51;8.47;;;4.23;;
23206;SDS011;11773;52.570;13.052;2024-01-10T09:00:22;7.12;;;4.78;;
23206;SDS011;11773;52.570;13.052;2024-01-10T09:02:51;4.87;;;3.63;;
23206;SDS011;11773;52.570;13.052;2024-01-10T09:05:22;6.07;;;3.67;;
23206;SDS011;11773;52.570;13.052;2024-01-10T09:07:52;6.93;;;4.53;;
23206;SDS011;11773;52.570;13.052;2024-01-10T09:10:21;6.33;;;4.30;;
23206;SDS011;11773;52.570;13.052;2024-01-10T09:12:53;6.50;;;4.33;;
23206;SDS011;11773;52.570;13.052;2024-01-10T09:15:22;8.10;;;4.47;;
23206;SDS011;11773;52.570;13.052;2024-01-10T09:17:52;11.53;;;6.70;;
23206;SDS011;11773;52.570;13.052;2024-01-10T09:20:22;8.67;;;5.50;;
23206;SDS011;11773;52.570;13.052;2024-01-10T09:22:52;6.93;;;4.67;;
23206;SDS011;11773;52.570;13.052;2024-01-10T09:25:21;7.77;;;5.03;;
23206;SDS011;11773;52.570;13.052;2024-01-10T09:27:51;7.43;;;4.80;;
23206;SDS011;11773;52.570;13.052;2024-01-10T09:30:21;8.30;;;4.50;;
23206;SDS011;11773;52.570;13.052;2024-01-10T09:32:51;10.00;;;6.40;;
23206;SDS011;11773;52.570;13.052;2024-01-10T09:35:20;11.67;;;6.93;;
23206;SDS011;11773;52.570;13.052;2024-01-10T09:37:51;9.10;;;5.60;;
23206;SDS011;11773;52.570;13.052;2024-01-10T09:40:22;5.93;;;4.00;;
23206;SDS011;11773;52.570;13.052;2024-01-10T09:42:53;8.97;;;5.03;;
23206;SDS011;11773;52.570;13.052;2024-01-10T09:45:23;8.93;;;5.03;;
23206;SDS011;11773;52.570;13.052;2024-01-10T09:47:56;5.73;;;3.90;;
23206;SDS011;11773;52.570;13.052;2024-01-10T09:50:26;6.77;;;4.00;;
23206;SDS011;11773;52.570;13.052;2024-01-10T09:52:58;6.93;;;4.33;;
23206;SDS011;11773;52.570;13.052;2024-01-10T09:55:37;11.50;;;7.57;;
23206;SDS011;11773;52.570;13.052;2024-01-10T09:58:06;11.77;;;6.40;;
23206;SDS011;11773;52.570;13.052;2024-01-10T10:00:37;11.17;;;6.77;;
23206;SDS011;11773;52.570;13.052;2024-01-10T10:03:09;7.63;;;5.23;;
23206;SDS011;11773;52.570;13.052;2024-01-10T10:05:40;7.37;;;5.07;;
23206;SDS011;11773;52.570;13.052;2024-01-10T10:08:11;15.63;;;8.60;;
23206;SDS011;11773;52.570;13.052;2024-01-10T10:10:42;14.53;;;8.57;;
23206;SDS011;11773;52.570;13.052;2024-01-10T10:13:47;14.90;;;9.33;;
23206;SDS011;11773;52.570;13.052;2024-01-10T10:16:03;23.03;;;12.83;;
23206;SDS011;11773;52.570;13.052;2024-01-10T10:18:33;19.13;;;11.57;;
23206;SDS011;11773;52.570;13.052;2024-01-10T10:21:06;16.23;;;9.43;;
23206;SDS011;11773;52.570;13.052;2024-01-10T10:23:41;12.37;;;7.50;;
23206;SDS011;11773;52.570;13.052;2024-01-10T10:26:28;8.73;;;5.93;;
23206;SDS011;11773;52.570;13.052;2024-01-10T10:29:02;13.00;;;7.47;;
23206;SDS011;11773;52.570;13.052;2024-01-10T10:31:32;13.07;;;8.00;;
23206;SDS011;11773;52.570;13.052;2024-01-10T10:34:02;11.63;;;7.50;;
23206;SDS011;11773;52.570;13.052;2024-01-10T10:36:32;8.37;;;5.63;;
23206;SDS011;11773;52.570;13.052;2024-01-10T10:39:02;13.07;;;7.00;;
23206;SDS011;11773;52.570;13.052;2024-01-10T10:41:33;14.10;;;8.27;;
23206;SDS011;11773;52.570;13.052;2024-01-10T10:44:04;18.03;;;11.03;;
23206;SDS011;11773;52.570;13.052;2024-01-10T10:46:37;14.37;;;9.10;;
23206;SDS011;11773;52.570;13.052;2024-01-10T10:49:11;16.53;;;10.50;;
23206;SDS011;11773;52.570;13.052;2024-01-10T10:51:40;14.63;;;8.33;;
23206;SDS011;11773;52.570;13.052;2024-01-10T10:54:11;11.63;;;7.10;;
23206;SDS011;11773;52.570;13.052;2024-01-10T10:56:43;10.77;;;6.30;;
23206;SDS011;11773;52.570;13.052;2024-01-10T10:59:13;7.10;;;4.63;;
23206;SDS011;11773;52.570;13.052;2024-01-10T11:01:47;16.80;;;9.50;;
23206;SDS011;11773;52.570;13.052;2024-01-10T11:04:17;31.10;;;17.60;;
23206;SDS011;11773;52.570;13.052;2024-01-10T11:06:49;18.47;;;10.60;;
23206;SDS011;11773;52.570;13.052;2024-01-10T11:09:19;14.00;;;8.63;;
23206;SDS011;11773;52.570;13.052;2024-01-10T11:11:57;13.73;;;9.10;;
23206;SDS011;11773;52.570;13.052;2024-01-10T11:17:57;11.73;;;8.17;;
23206;SDS011;11773;52.570;13.052;2024-01-10T11:23:40;18.43;;;11.57;;
23206;SDS011;11773;52.570;13.052;2024-01-10T11:26:14;16.60;;;10.63;;
23206;SDS011;11773;52.570;13.052;2024-01-10T11:28:46;16.23;;;9.67;;
23206;SDS011;11773;52.570;13.052;2024-01-10T11:31:18;11.77;;;7.03;;
23206;SDS011;11773;52.570;13.052;2024-01-10T11:33:58;11.23;;;6.90;;
23206;SDS011;11773;52.570;13.052;2024-01-10T11:36:32;8.47;;;5.93;;
23206;SDS011;11773;52.570;13.052;2024-01-10T11:39:07;16.10;;;8.43;;
23206;SDS011;11773;52.570;13.052;2024-01-10T11:41:34;14.47;;;7.87;;
23206;SDS011;11773;52.570;13.052;2024-01-10T11:46:49;12.03;;;7.23;;
23206;SDS011;11773;52.570;13.052;2024-01-10T11:49:22;11.60;;;7.50;;
23206;SDS011;11773;52.570;13.052;2024-01-10T11:51:54;10.40;;;6.17;;
23206;SDS011;11773;52.570;13.052;2024-01-10T11:59:50;14.07;;;8.53;;
23206;SDS011;11773;52.570;13.052;2024-01-10T12:02:22;11.48;;;6.85;;
23206;SDS011;11773;52.570;13.052;2024-01-10T12:04:54;11.63;;;7.40;;
23206;SDS011;11773;52.570;13.052;2024-01-10T12:07:24;11.83;;;7.87;;
23206;SDS011;11773;52.570;13.052;2024-01-10T12:09:55;12.17;;;7.57;;
23206;SDS011;11773;52.570;13.052;2024-01-10T12:12:24;12.00;;;7.57;;
23206;SDS011;11773;52.570;13.052;2024-01-10T12:14:54;14.60;;;8.20;;
23206;SDS011;11773;52.570;13.052;2024-01-10T12:17:26;12.97;;;8.10;;
23206;SDS011;11773;52.570;13.052;2024-01-10T12:19:56;19.47;;;12.80;;
23206;SDS011;11773;52.570;13.052;2024-01-10T12:22:27;17.07;;;10.47;;
23206;SDS011;11773;52.570;13.052;2024-01-10T12:25:03;15.13;;;9.27;;
23206;SDS011;11773;52.570;13.052;2024-01-10T12:27:35;10.60;;;7.30;;
23206;SDS011;11773;52.570;13.052;2024-01-10T12:30:05;10.80;;;7.30;;
23206;SDS011;11773;52.570;13.052;2024-01-10T12:32:35;12.77;;;7.87;;
23206;SDS011;11773;52.570;13.052;2024-01-10T12:35:05;14.37;;;8.53;;
23206;SDS011;11773;52.570;13.052;2024-01-10T12:37:35;10.30;;;6.17;;
23206;SDS011;11773;52.570;13.052;2024-01-10T12:40:06;8.77;;;5.50;;
23206;SDS011;11773;52.570;13.052;2024-01-10T12:42:37;6.63;;;5.00;;
23206;SDS011;11773;52.570;13.052;2024-01-10T12:45:19;6.50;;;4.17;;
23206;SDS011;11773;52.570;13.052;2024-01-10T12:47:49;9.07;;;5.43;;
23206;SDS011;11773;52.570;13.052;2024-01-10T12:50:24;12.33;;;8.00;;
23206;SDS011;11773;52.570;13.052;2024-01-10T12:52:54;9.97;;;6.50;;
23206;SDS011;11773;52.570;13.052;2024-01-10T12:55:28;9.93;;;6.17;;
23206;SDS011;11773;52.570;13.052;2024-01-10T12:57:57;15.03;;;8.93;;
23206;SDS011;11773;52.570;13.052;2024-01-10T13:00:33;10.43;;;6.30;;
23206;SDS011;11773;52.570;13.052;2024-01-10T13:03:03;9.00;;;5.97;;
23206;SDS011;11773;52.570;13.052;2024-01-10T13:05:33;8.90;;;5.87;;
23206;SDS011;11773;52.570;13.052;2024-01-10T13:08:03;10.73;;;7.37;;
23206;SDS011;11773;52.570;13.052;2024-01-10T13:10:35;8.57;;;5.57;;
23206;SDS011;11773;52.570;13.052;2024-01-10T13:13:04;11.40;;;7.13;;
23206;SDS011;11773;52.570;13.052;2024-01-10T13:15:34;9.90;;;6.93;;
23206;SDS011;11773;52.570;13.052;2024-01-10T13:18:04;7.30;;;5.33;;
23206;SDS011;11773;52.570;13.052;2024-01-10T13:20:34;10.53;;;6.57;;
23206;SDS011;11773;52.570;13.052;2024-01-10T13:23:05;10.00;;;5.67;;
23206;SDS011;11773;52.570;13.052;2024-01-10T13:25:35;7.07;;;5.17;;
23206;SDS011;11773;52.570;13.052;2024-01-10T13:28:05;8.43;;;6.00;;
23206;SDS011;11773;52.570;13.052;2024-01-10T13:30:35;10.53;;;6.70;;
23206;SDS011;11773;52.570;13.052;2024-01-10T13:33:07;13.07;;;8.23;;
23206;SDS011;11773;52.570;13.052;2024-01-10T13:35:37;11.20;;;7.50;;
23206;SDS011;11773;52.570;13.052;2024-01-10T13:38:07;8.13;;;5.67;;
23206;SDS011;11773;52.570;13.052;2024-01-10T13:40:37;9.57;;;5.87;;
23206;SDS011;11773;52.570;13.052;2024-01-10T13:43:07;10.80;;;7.03;;
23206;SDS011;11773;52.570;13.052;2024-01-10T13:45:36;10.80;;;6.43;;
23206;SDS011;11773;52.570;13.052;2024-01-10T13:48:06;9.17;;;5.93;;
23206;SDS011;11773;52.570;13.052;2024-01-10T13:50:37;9.10;;;5.87;;
23206;SDS011;11773;52.570;13.052;2024-01-10T13:53:07;10.60;;;6.60;;
23206;SDS011;11773;52.570;13.052;2024-01-10T13:55:36;7.13;;;4.90;;
23206;SDS011;11773;52.570;13.052;2024-01-10T13:58:06;6.93;;;4.70;;
23206;SDS011;11773;52.570;13.052;2024-01-10T14:00:36;8.97;;;5.90;;
23206;SDS011;11773;52.570;13.052;2024-01-10T14:03:08;9.30;;;6.20;;
23206;SDS011;11773;52.570;13.052;2024-01-10T14:05:37;13.57;;;8.37;;
23206;SDS011;11773;52.570;13.052;2024-01-10T14:08:07;10.03;;;6.50;;
23206;SDS011;11773;52.570;13.052;2024-01-10T14:10:37;8.40;;;5.40;;
23206;SDS011;11773;52.570;13.052;2024-01-10T14:13:09;7.20;;;4.30;;
23206;SDS011;11773;52.570;13.052;2024-01-10T14:15:39;6.67;;;4.40;;
23206;SDS011;11773;52.570;13.052;2024-01-10T14:18:09;4.83;;;3.70;;
23206;SDS011;11773;52.570;13.052;2024-01-10T14:20:38;5.57;;;4.27;;
23206;SDS011;11773;52.570;13.052;2024-01-10T14:23:09;6.10;;;4.50;;
23206;SDS011;11773;52.570;13.052;2024-01-10T14:25:38;6.73;;;4.50;;
23206;SDS011;11773;52.570;13.052;2024-01-10T14:28:08;4.37;;;3.30;;
23206;SDS011;11773;52.570;13.052;2024-01-10T14:30:38;4.87;;;3.37;;
23206;SDS011;11773;52.570;13.052;2024-01-10T14:33:08;4.20;;;3.30;;
23206;SDS011;11773;52.570;13.052;2024-01-10T14:35:39;3.17;;;2.40;;
23206;SDS011;11773;52.570;13.052;2024-01-10T14:38:10;5.83;;;4.30;;
23206;SDS011;11773;52.570;13.052;2024-01-10T14:40:39;7.00;;;4.93;;
23206;SDS011;11773;52.570;13.052;2024-01-10T14:43:09;5.20;;;4.47;;
23206;SDS011;11773;52.570;13.052;2024-01-10T14:45:40;9.17;;;5.77;;
23206;SDS011;11773;52.570;13.052;2024-01-10T14:48:14;22.50;;;13.63;;
23206;SDS011;11773;52.570;13.052;2024-01-10T14:50:44;21.13;;;12.83;;
23206;SDS011;11773;52.570;13.052;2024-01-10T14:53:14;22.27;;;12.87;;
23206;SDS011;11773;52.570;13.052;2024-01-10T14:55:43;16.20;;;9.73;;
23206;SDS011;11773;52.570;13.052;2024-01-10T14:58:13;12.73;;;8.07;;
23206;SDS011;11773;52.570;13.052;2024-01-10T15:00:44;12.10;;;8.27;;
23206;SDS011;11773;52.570;13.052;2024-01-10T15:03:14;11.40;;;8.20;;